Ana Sayfa
METAR-TAF:

METAR-TAF

Havaalanları :

Hazleton, Pensilvanya, Amerika Birleşik Devletleri

Enlem: 40-59-12N, Boylam: 075-59-42W, yükseklik: 489 m

Güncel hava durumu gözlemi

Rapor saat 06:19 UTC de 13 dakika önce yapıldı.
Rüzgar batı/kuzeybatıdan 5 kt
Sıcaklık -5°C
Nem 53%
Basınç 1033 hPa
Görüş mesafesi: 16.1 km
Açık gökyüzü

METAR: KHZL 120619Z AUTO 29005KT 10SM CLR M05/M13 A3049 RMK AO2

Saat: 01:32 (06:32 UTC)


TAF: eksik

4.000'den fazla havaalanı için hava durumu gözlemleri ve tahminleri (METAR ve TAF raporları).

Kullanılabilir istasyonlar harita üzerinde sarı ve kırmızı noktalarla gösterilir.

İstasyonun adını görmek için fareyi noktanın üzerinde gezdirin.

Sonrasında hava gözlem ve tahminlerini görmek için tıklayın.

Haritayı değiştirmek için: yaklaştırmak için siyah artı işaretli yeşil düğmeye ve uzaklaştırmak için de eksi işaretli düğmeye hızla tıklayın; bitişik haritalar için yeşil okları kullanın.


METAR-TAF: